createdAt,value
2023-03-19T00:00:46.622Z,10.13
2023-03-19T00:01:49.192Z,10.73
2023-03-19T00:02:52.395Z,10.68
2023-03-19T00:03:55.469Z,9.85
2023-03-19T00:04:57.079Z,10.25
2023-03-19T00:05:59.658Z,10.02
2023-03-19T00:07:02.633Z,9.30
2023-03-19T00:08:05.567Z,9.90
2023-03-19T00:09:07.356Z,9.90
2023-03-19T00:10:10.534Z,9.60
2023-03-19T00:11:13.611Z,9.68
2023-03-19T00:12:16.236Z,9.48
2023-03-19T00:13:18.489Z,8.60
2023-03-19T00:14:21.349Z,9.88
2023-03-19T00:15:23.151Z,9.60
2023-03-19T00:16:25.844Z,9.55
2023-03-19T00:17:27.808Z,10.10
2023-03-19T00:18:30.696Z,9.57
2023-03-19T00:19:32.234Z,9.63
2023-03-19T00:20:35.120Z,9.88
2023-03-19T00:21:36.767Z,9.52
2023-03-19T00:22:40.889Z,8.43
2023-03-19T00:23:42.841Z,8.93
2023-03-19T00:24:45.652Z,8.95
2023-03-19T00:25:47.431Z,9.77
2023-03-19T00:26:50.100Z,8.60
2023-03-19T00:27:52.838Z,9.73
2023-03-19T00:28:56.148Z,8.65
2023-03-19T00:29:57.800Z,9.40
2023-03-19T00:31:08.549Z,9.65
2023-03-19T00:33:13.120Z,9.75
2023-03-19T00:34:18.309Z,11.05
2023-03-19T00:35:20.827Z,10.18
2023-03-19T00:36:23.405Z,9.20
2023-03-19T00:37:26.071Z,8.90
2023-03-19T00:38:29.281Z,9.98
2023-03-19T00:39:32.236Z,9.20
2023-03-19T00:40:33.770Z,9.55
2023-03-19T00:41:36.334Z,9.65
2023-03-19T00:42:37.888Z,8.93
2023-03-19T00:43:41.187Z,10.50
2023-03-19T00:44:42.812Z,9.48
2023-03-19T00:45:45.438Z,9.43
2023-03-19T00:46:47.081Z,9.20
2023-03-19T00:47:49.659Z,9.30
2023-03-19T00:48:55.571Z,9.00
2023-03-19T00:49:58.087Z,8.85
2023-03-19T00:51:02.919Z,8.70
2023-03-19T00:52:05.935Z,7.43
2023-03-19T00:53:07.635Z,8.25
2023-03-19T00:54:14.820Z,8.15
2023-03-19T00:55:16.786Z,7.68
2023-03-19T00:56:20.151Z,8.60
2023-03-19T00:57:22.325Z,7.95
2023-03-19T00:58:25.081Z,8.48
2023-03-19T00:59:26.848Z,8.43
2023-03-19T01:00:29.731Z,8.18
2023-03-19T01:01:32.096Z,7.85
2023-03-19T01:02:34.631Z,8.15
2023-03-19T01:03:36.727Z,8.48
2023-03-19T01:04:39.549Z,8.65
2023-03-19T01:05:41.505Z,8.60
2023-03-19T01:06:44.104Z,8.88
2023-03-19T01:07:46.048Z,8.18
2023-03-19T01:08:48.897Z,7.82
2023-03-19T01:09:52.054Z,8.05
2023-03-19T01:10:54.847Z,8.30
2023-03-19T01:11:57.033Z,7.60
2023-03-19T01:12:59.495Z,7.88
2023-03-19T01:14:01.561Z,7.72
2023-03-19T01:15:06.970Z,8.10
2023-03-19T01:16:08.833Z,7.88
2023-03-19T01:17:11.427Z,7.80
2023-03-19T01:18:13.261Z,8.13
2023-03-19T01:19:16.404Z,7.80
2023-03-19T01:20:19.110Z,7.20
2023-03-19T01:21:22.387Z,7.55
2023-03-19T01:22:23.931Z,7.47
2023-03-19T01:23:26.478Z,8.50
2023-03-19T01:24:29.680Z,7.78
2023-03-19T01:25:34.257Z,7.03
2023-03-19T01:26:35.946Z,7.30
2023-03-19T01:27:38.475Z,7.90
2023-03-19T01:28:40.037Z,7.35
2023-03-19T01:29:42.732Z,7.63
2023-03-19T01:30:44.738Z,7.45
2023-03-19T01:31:47.244Z,7.55
2023-03-19T01:32:49.007Z,8.13
2023-03-19T01:33:52.701Z,7.45
2023-03-19T01:34:54.330Z,7.95
2023-03-19T01:35:58.031Z,7.63
2023-03-19T01:36:59.566Z,7.55
2023-03-19T01:38:05.065Z,7.35
2023-03-19T01:39:07.035Z,7.30
2023-03-19T01:40:13.282Z,7.40
2023-03-19T01:41:16.401Z,7.60
2023-03-19T01:42:19.180Z,7.07
2023-03-19T01:43:22.989Z,7.15
2023-03-19T01:44:27.706Z,8.13
2023-03-19T01:45:36.761Z,7.85
2023-03-19T01:46:40.376Z,8.18
2023-03-19T01:47:44.349Z,7.68
2023-03-19T01:48:50.891Z,7.50
2023-03-19T01:49:54.700Z,7.13
2023-03-19T01:50:58.943Z,7.53
2023-03-19T01:52:04.713Z,7.30
2023-03-19T01:53:09.074Z,7.75
2023-03-19T01:54:14.678Z,7.03
2023-03-19T01:55:17.341Z,7.25
2023-03-19T01:56:24.191Z,7.43
2023-03-19T01:57:27.172Z,7.78
2023-03-19T01:58:29.260Z,8.13
2023-03-19T01:59:35.771Z,8.02
2023-03-19T02:00:39.046Z,7.50
2023-03-19T02:01:48.142Z,7.25
2023-03-19T02:02:53.611Z,7.47
2023-03-19T02:03:57.286Z,7.65
2023-03-19T02:05:02.887Z,7.35
2023-03-19T02:06:06.384Z,7.70
2023-03-19T02:07:09.394Z,7.60
2023-03-19T02:08:16.038Z,7.53
2023-03-19T02:09:19.479Z,7.75
2023-03-19T02:10:23.703Z,8.00
2023-03-19T02:11:28.110Z,7.50
2023-03-19T02:12:29.656Z,7.10
2023-03-19T02:13:32.281Z,7.20
2023-03-19T02:14:34.098Z,7.57
2023-03-19T02:15:36.773Z,7.32
2023-03-19T02:16:38.359Z,7.32
2023-03-19T02:17:42.004Z,8.43
2023-03-19T02:18:44.620Z,7.25
2023-03-19T02:19:52.387Z,7.35
2023-03-19T02:21:01.171Z,7.95
2023-03-19T02:22:05.581Z,7.28
2023-03-19T02:23:14.385Z,7.93
2023-03-19T02:24:21.009Z,7.18
2023-03-19T02:25:31.006Z,7.28
2023-03-19T02:26:35.939Z,7.85
2023-03-19T02:27:37.948Z,8.07
2023-03-19T02:28:44.185Z,8.43
2023-03-19T02:29:46.062Z,7.60
2023-03-19T02:30:48.906Z,7.88
2023-03-19T02:31:50.884Z,7.38
2023-03-19T02:32:53.568Z,7.15
2023-03-19T02:33:59.509Z,7.72
2023-03-19T02:35:02.090Z,7.90
2023-03-19T02:36:06.389Z,7.85
2023-03-19T02:37:14.011Z,7.95
2023-03-19T02:38:16.089Z,7.68
2023-03-19T02:39:23.689Z,7.57
2023-03-19T02:40:30.108Z,8.00
2023-03-19T02:41:35.325Z,7.20
2023-03-19T02:42:37.205Z,7.13
2023-03-19T02:43:41.962Z,7.35
2023-03-19T02:44:43.529Z,7.50
2023-03-19T02:45:46.245Z,7.45
2023-03-19T02:46:47.859Z,7.43
2023-03-19T02:47:50.579Z,7.03
2023-03-19T02:48:52.602Z,7.50
2023-03-19T02:49:55.272Z,7.28
2023-03-19T02:50:57.047Z,7.80
2023-03-19T02:51:59.580Z,7.70
2023-03-19T02:53:01.274Z,7.63
2023-03-19T02:54:03.905Z,7.10
2023-03-19T02:55:06.636Z,7.10
2023-03-19T02:56:09.613Z,7.18
2023-03-19T02:57:12.712Z,7.28
2023-03-19T02:58:15.530Z,7.13
2023-03-19T02:59:17.065Z,6.72
2023-03-19T03:00:21.066Z,7.20
2023-03-19T03:01:23.034Z,7.20
2023-03-19T03:02:26.454Z,7.35
2023-03-19T03:03:28.148Z,7.35
2023-03-19T03:04:30.946Z,6.97
2023-03-19T03:05:33.100Z,7.85
2023-03-19T03:06:35.621Z,7.20
2023-03-19T03:07:37.689Z,6.70
2023-03-19T03:08:40.343Z,7.28
2023-03-19T03:09:42.093Z,6.53
2023-03-19T03:10:44.995Z,8.00
2023-03-19T03:11:47.133Z,7.70
2023-03-19T03:12:51.580Z,8.23
2023-03-19T03:13:53.340Z,7.35
2023-03-19T03:14:56.019Z,8.02
2023-03-19T03:15:57.654Z,7.60
2023-03-19T03:17:00.465Z,8.25
2023-03-19T03:18:02.050Z,8.23
2023-03-19T03:19:04.852Z,7.55
2023-03-19T03:20:08.209Z,7.63
2023-03-19T03:21:11.756Z,7.63
2023-03-19T03:22:13.252Z,7.97
2023-03-19T03:23:15.761Z,7.90
2023-03-19T03:24:17.305Z,7.75
2023-03-19T03:25:21.060Z,7.65
2023-03-19T03:26:22.631Z,7.05
2023-03-19T03:27:25.155Z,7.45
2023-03-19T03:28:28.152Z,7.32
2023-03-19T03:29:30.696Z,7.47
2023-03-19T03:30:32.804Z,7.80
2023-03-19T03:31:35.715Z,8.52
2023-03-19T03:32:38.959Z,7.60
2023-03-19T03:33:41.637Z,7.53
2023-03-19T03:34:43.512Z,7.72
2023-03-19T03:35:46.406Z,7.50
2023-03-19T03:36:47.946Z,7.45
2023-03-19T03:37:51.267Z,7.75
2023-03-19T03:38:53.690Z,7.40
2023-03-19T03:39:56.187Z,7.45
2023-03-19T03:40:57.659Z,8.07
2023-03-19T03:42:00.109Z,8.20
2023-03-19T03:43:02.426Z,7.93
2023-03-19T03:44:06.797Z,8.27
2023-03-19T03:45:10.677Z,7.40
2023-03-19T03:46:13.726Z,7.75
2023-03-19T03:47:15.385Z,6.80
2023-03-19T03:48:18.563Z,7.32
2023-03-19T03:49:20.516Z,7.60
2023-03-19T03:50:22.996Z,8.13
2023-03-19T03:51:26.126Z,7.55
2023-03-19T03:52:31.537Z,7.35
2023-03-19T03:53:34.134Z,7.18
2023-03-19T03:54:35.899Z,7.43
2023-03-19T03:55:38.715Z,8.30
2023-03-19T03:56:40.344Z,7.80
2023-03-19T03:57:42.840Z,8.05
2023-03-19T03:58:44.634Z,7.78
2023-03-19T03:59:48.439Z,7.13
2023-03-19T04:00:50.694Z,8.00
2023-03-19T04:01:53.262Z,7.57
2023-03-19T04:02:54.951Z,7.80
2023-03-19T04:03:57.904Z,8.05
2023-03-19T04:04:59.416Z,7.72
2023-03-19T04:06:01.993Z,7.78
2023-03-19T04:07:03.487Z,7.80
2023-03-19T04:08:08.690Z,7.28
2023-03-19T04:09:10.225Z,7.68
2023-03-19T04:10:14.040Z,8.45
2023-03-19T04:11:15.592Z,7.63
2023-03-19T04:12:18.138Z,8.13
2023-03-19T04:13:20.565Z,7.20
2023-03-19T04:14:23.025Z,7.85
2023-03-19T04:15:26.095Z,7.60
2023-03-19T04:16:29.299Z,7.55
2023-03-19T04:17:30.852Z,7.30
2023-03-19T04:18:33.560Z,7.55
2023-03-19T04:19:35.434Z,7.55
2023-03-19T04:20:38.020Z,7.78
2023-03-19T04:21:39.669Z,8.13
2023-03-19T04:22:42.139Z,7.57
2023-03-19T04:23:43.658Z,7.43
2023-03-19T04:24:46.430Z,7.43
2023-03-19T04:25:48.241Z,7.70
2023-03-19T04:26:51.124Z,8.68
2023-03-19T04:27:52.921Z,7.72
2023-03-19T04:28:55.739Z,8.00
2023-03-19T04:29:57.290Z,7.75
2023-03-19T04:31:02.054Z,8.15
2023-03-19T04:32:04.249Z,8.15
2023-03-19T04:33:06.974Z,9.10
2023-03-19T04:34:08.593Z,8.02
2023-03-19T04:35:11.981Z,7.88
2023-03-19T04:36:13.766Z,7.00
2023-03-19T04:37:16.277Z,7.63
2023-03-19T04:38:18.166Z,8.07
2023-03-19T04:39:20.921Z,7.93
2023-03-19T04:40:22.554Z,8.00
2023-03-19T04:41:26.037Z,7.85
2023-03-19T04:42:27.623Z,8.50
2023-03-19T04:43:30.149Z,8.18
2023-03-19T04:44:32.094Z,7.97
2023-03-19T04:45:34.864Z,8.27
2023-03-19T04:46:38.277Z,8.23
2023-03-19T04:47:40.760Z,7.80
2023-03-19T04:48:42.667Z,8.65
2023-03-19T04:49:45.286Z,8.05
2023-03-19T04:50:47.386Z,8.20
2023-03-19T04:51:50.001Z,8.13
2023-03-19T04:52:51.728Z,8.77
2023-03-19T04:53:54.886Z,7.95
2023-03-19T04:54:56.446Z,8.55
2023-03-19T04:55:58.948Z,9.63
2023-03-19T04:57:01.011Z,9.48
2023-03-19T04:58:03.869Z,10.30
2023-03-19T04:59:05.469Z,10.73
2023-03-19T05:00:09.812Z,10.68
2023-03-19T05:01:12.173Z,9.70
2023-03-19T05:02:16.085Z,9.60
2023-03-19T05:03:17.640Z,10.15
2023-03-19T05:04:20.640Z,9.82
2023-03-19T05:05:22.243Z,9.73
2023-03-19T05:06:24.708Z,9.82
2023-03-19T05:07:26.491Z,11.10
2023-03-19T05:08:29.026Z,10.07
2023-03-19T05:09:30.954Z,9.82
2023-03-19T05:10:34.778Z,9.27
2023-03-19T05:11:37.204Z,9.05
2023-03-19T05:12:40.063Z,9.25
2023-03-19T05:13:41.550Z,9.75
2023-03-19T05:14:44.105Z,9.88
2023-03-19T05:15:46.384Z,9.32
2023-03-19T05:16:48.955Z,10.25
2023-03-19T05:17:51.906Z,10.13
2023-03-19T05:18:54.429Z,9.60
2023-03-19T05:19:57.047Z,9.70
2023-03-19T05:20:59.839Z,9.73
2023-03-19T05:22:01.427Z,9.50
2023-03-19T05:23:04.511Z,9.38
2023-03-19T05:24:06.136Z,10.25
2023-03-19T05:25:09.743Z,10.25
2023-03-19T05:26:11.756Z,10.88
2023-03-19T05:27:14.506Z,10.63
2023-03-19T05:28:16.227Z,10.55
2023-03-19T05:29:18.748Z,10.80
2023-03-19T05:30:20.421Z,10.88
2023-03-19T05:31:23.677Z,10.80
2023-03-19T05:32:25.566Z,10.23
2023-03-19T05:33:29.472Z,10.57
2023-03-19T05:34:31.466Z,9.95
2023-03-19T05:35:34.728Z,10.18
2023-03-19T05:36:36.305Z,9.85
2023-03-19T05:37:38.754Z,10.40
2023-03-19T05:38:40.693Z,10.38
2023-03-19T05:39:43.245Z,9.98
2023-03-19T05:40:45.065Z,10.40
2023-03-19T05:41:47.754Z,10.50
2023-03-19T05:42:49.833Z,9.20
2023-03-19T05:43:52.285Z,10.93
2023-03-19T05:44:53.879Z,10.20
2023-03-19T05:45:56.932Z,10.15
2023-03-19T05:46:58.444Z,9.88
2023-03-19T05:48:00.963Z,10.35
2023-03-19T05:49:03.896Z,9.85
2023-03-19T05:50:07.131Z,10.55
2023-03-19T05:51:09.326Z,9.93
2023-03-19T05:52:12.099Z,10.80
2023-03-19T05:53:13.978Z,11.60
2023-03-19T05:54:16.554Z,11.45
2023-03-19T05:55:18.227Z,10.60
2023-03-19T05:56:20.860Z,11.35
2023-03-19T05:57:22.362Z,10.27
2023-03-19T05:58:25.176Z,10.82
2023-03-19T05:59:26.721Z,10.88
2023-03-19T06:00:29.242Z,10.93
2023-03-19T06:01:31.040Z,10.88
2023-03-19T06:02:34.101Z,10.75
2023-03-19T06:03:37.262Z,10.07
2023-03-19T06:04:40.231Z,10.88
2023-03-19T06:05:43.011Z,9.98
2023-03-19T06:06:44.567Z,9.70
2023-03-19T06:07:47.083Z,10.60
2023-03-19T06:08:49.034Z,9.90
2023-03-19T06:09:51.926Z,10.00
2023-03-19T06:10:53.866Z,9.63
2023-03-19T06:11:56.540Z,10.60
2023-03-19T06:12:58.151Z,9.55
2023-03-19T06:14:00.896Z,10.52
2023-03-19T06:15:02.722Z,9.27
2023-03-19T06:16:06.231Z,11.13
2023-03-19T06:17:09.260Z,10.48
2023-03-19T06:18:11.899Z,9.98
2023-03-19T06:19:13.422Z,10.68
2023-03-19T06:20:17.806Z,9.35
2023-03-19T06:21:20.751Z,10.00
2023-03-19T06:22:22.579Z,9.00
2023-03-19T06:23:25.085Z,9.43
2023-03-19T06:24:26.942Z,9.90
2023-03-19T06:25:29.524Z,10.55
2023-03-19T06:26:31.195Z,10.10
2023-03-19T06:27:33.691Z,9.68
2023-03-19T06:28:35.195Z,10.35
2023-03-19T06:29:37.839Z,10.35
2023-03-19T06:30:40.414Z,11.30
2023-03-19T06:31:41.956Z,11.90
2023-03-19T06:32:44.529Z,10.38
2023-03-19T06:33:46.065Z,10.52
2023-03-19T06:34:48.544Z,10.38
2023-03-19T06:35:51.516Z,11.43
2023-03-19T06:36:54.388Z,10.90
2023-03-19T06:37:56.025Z,10.80
2023-03-19T06:38:58.534Z,11.10
2023-03-19T06:40:00.353Z,12.05
2023-03-19T06:41:02.944Z,12.07
2023-03-19T06:42:04.857Z,12.55
2023-03-19T06:43:07.350Z,13.13
2023-03-19T06:44:08.898Z,12.60
2023-03-19T06:45:12.502Z,12.77
2023-03-19T06:46:14.162Z,13.23
2023-03-19T06:47:16.774Z,12.35
2023-03-19T06:48:18.906Z,12.02
2023-03-19T06:49:21.961Z,12.35
2023-03-19T06:50:23.583Z,12.07
2023-03-19T06:51:27.714Z,12.02
2023-03-19T06:52:29.297Z,11.20
2023-03-19T06:53:32.309Z,11.13
2023-03-19T06:54:33.856Z,11.30
2023-03-19T06:55:37.500Z,11.10
2023-03-19T06:56:40.017Z,10.88
2023-03-19T06:57:41.674Z,11.30
2023-03-19T06:58:44.187Z,9.25
2023-03-19T06:59:46.026Z,9.30
2023-03-19T07:00:48.748Z,9.57
2023-03-19T07:01:50.364Z,10.23
2023-03-19T07:02:52.914Z,8.95
2023-03-19T07:03:54.511Z,9.60
2023-03-19T07:04:57.468Z,9.23
2023-03-19T07:05:59.163Z,9.38
2023-03-19T07:07:05.339Z,9.43
2023-03-19T07:08:11.772Z,8.60
2023-03-19T07:09:14.520Z,8.98
2023-03-19T07:10:18.614Z,9.48
2023-03-19T07:11:21.153Z,8.43
2023-03-19T07:12:22.726Z,8.48
2023-03-19T07:13:25.583Z,8.75
2023-03-19T07:14:28.165Z,8.15
2023-03-19T07:15:29.917Z,9.40
2023-03-19T07:16:32.877Z,8.50
2023-03-19T07:17:34.600Z,8.55
2023-03-19T07:18:39.780Z,8.45
2023-03-19T07:19:42.340Z,8.25
2023-03-19T07:20:43.982Z,8.25
2023-03-19T07:21:46.774Z,8.73
2023-03-19T07:22:51.759Z,8.10
2023-03-19T07:23:54.312Z,9.00
2023-03-19T07:24:55.826Z,8.10
2023-03-19T07:25:58.571Z,7.93
2023-03-19T07:27:02.332Z,8.50
2023-03-19T07:28:04.448Z,8.43
2023-03-19T07:29:07.218Z,7.80
2023-03-19T07:30:10.056Z,7.60
2023-03-19T07:31:13.170Z,8.60
2023-03-19T07:32:15.143Z,7.60
2023-03-19T07:33:17.886Z,8.82
2023-03-19T07:34:19.390Z,8.57
2023-03-19T07:35:22.491Z,8.60
2023-03-19T07:36:24.100Z,8.57
2023-03-19T07:37:26.560Z,7.97
2023-03-19T07:38:30.467Z,8.20
2023-03-19T07:39:32.336Z,7.78
2023-03-19T07:40:35.192Z,8.25
2023-03-19T07:41:37.089Z,7.80
2023-03-19T07:42:40.065Z,8.02
2023-03-19T07:43:41.583Z,8.20
2023-03-19T07:44:44.086Z,10.00
2023-03-19T07:45:45.619Z,8.68
2023-03-19T07:46:48.083Z,8.10
2023-03-19T07:47:50.439Z,8.30
2023-03-19T07:48:56.317Z,9.05
2023-03-19T07:49:59.265Z,8.80
2023-03-19T07:51:01.855Z,8.82
2023-03-19T07:52:04.561Z,8.82
2023-03-19T07:53:06.445Z,7.32
2023-03-19T07:54:10.295Z,8.30
2023-03-19T07:55:11.834Z,8.18
2023-03-19T07:56:14.391Z,7.72
2023-03-19T07:57:16.598Z,8.45
2023-03-19T07:58:19.473Z,8.05
2023-03-19T07:59:22.181Z,7.82
2023-03-19T08:00:24.162Z,8.38
2023-03-19T08:01:27.082Z,8.18
2023-03-19T08:02:28.650Z,8.07
2023-03-19T08:03:31.307Z,8.45
2023-03-19T08:04:32.923Z,8.13
2023-03-19T08:05:35.488Z,7.60
2023-03-19T08:06:38.648Z,8.20
2023-03-19T08:07:41.330Z,8.45
2023-03-19T08:08:44.060Z,8.02
2023-03-19T08:09:47.115Z,7.60
2023-03-19T08:10:52.674Z,8.27
2023-03-19T08:11:54.222Z,7.63
2023-03-19T08:12:56.739Z,8.15
2023-03-19T08:13:58.285Z,7.50
2023-03-19T08:15:01.216Z,8.45
2023-03-19T08:16:02.973Z,8.05
2023-03-19T08:17:05.700Z,8.77
2023-03-19T08:18:07.646Z,8.20
2023-03-19T08:19:10.096Z,8.02
2023-03-19T08:20:14.331Z,8.90
2023-03-19T08:21:16.949Z,7.97
2023-03-19T08:22:18.730Z,8.70
2023-03-19T08:23:21.197Z,9.05
2023-03-19T08:24:23.097Z,8.73
2023-03-19T08:25:27.439Z,7.90
2023-03-19T08:26:29.938Z,8.10
2023-03-19T08:27:31.599Z,8.43
2023-03-19T08:28:34.198Z,8.20
2023-03-19T08:29:36.027Z,8.60
2023-03-19T08:30:38.827Z,8.48
2023-03-19T08:31:40.755Z,8.65
2023-03-19T08:32:44.848Z,9.00
2023-03-19T08:33:47.106Z,7.95
2023-03-19T08:34:49.887Z,9.23
2023-03-19T08:35:53.006Z,8.25
2023-03-19T08:36:54.908Z,8.45
2023-03-19T08:37:57.699Z,8.70
2023-03-19T08:38:59.564Z,8.73
2023-03-19T08:40:02.083Z,8.68
2023-03-19T08:41:06.348Z,9.10
2023-03-19T08:42:08.849Z,8.95
2023-03-19T08:43:11.314Z,8.50
2023-03-19T08:44:13.090Z,8.80
2023-03-19T08:45:17.090Z,7.78
2023-03-19T08:46:18.937Z,8.95
2023-03-19T08:47:24.371Z,8.57
2023-03-19T08:48:27.089Z,8.48
2023-03-19T08:49:28.647Z,8.60
2023-03-19T08:50:31.151Z,8.15
2023-03-19T08:51:32.763Z,8.65
2023-03-19T08:52:35.700Z,8.40
2023-03-19T08:53:38.631Z,8.55
2023-03-19T08:54:41.100Z,8.63
2023-03-19T08:55:43.996Z,8.13
2023-03-19T08:56:48.060Z,8.48
2023-03-19T08:57:49.579Z,8.45
2023-03-19T08:58:54.785Z,7.97
2023-03-19T08:59:56.358Z,8.35
2023-03-19T09:01:02.951Z,8.65
2023-03-19T09:02:05.927Z,8.02
2023-03-19T09:03:07.625Z,8.68
2023-03-19T09:04:10.150Z,7.70
2023-03-19T09:05:11.751Z,8.38
2023-03-19T09:06:15.694Z,8.02
2023-03-19T09:07:17.410Z,8.45
2023-03-19T09:08:20.377Z,9.10
2023-03-19T09:09:24.621Z,8.65
2023-03-19T09:10:27.327Z,8.38
2023-03-19T09:11:29.887Z,8.68
2023-03-19T09:12:33.945Z,8.82
2023-03-19T09:13:36.688Z,8.68
2023-03-19T09:14:39.868Z,8.38
2023-03-19T09:15:42.570Z,8.90
2023-03-19T09:16:44.138Z,8.68
2023-03-19T09:17:46.844Z,9.07
2023-03-19T09:18:48.617Z,8.82
2023-03-19T09:19:51.161Z,8.55
2023-03-19T09:20:53.835Z,8.68
2023-03-19T09:21:56.572Z,8.80
2023-03-19T09:22:58.118Z,7.88
2023-03-19T09:24:00.914Z,8.55
2023-03-19T09:25:02.804Z,8.30
2023-03-19T09:26:05.724Z,8.57
2023-03-19T09:27:07.399Z,8.20
2023-03-19T09:28:11.342Z,8.95
2023-03-19T09:29:13.134Z,8.88
2023-03-19T09:30:15.982Z,8.63
2023-03-19T09:31:17.855Z,8.23
2023-03-19T09:32:20.970Z,8.20
2023-03-19T09:33:22.619Z,8.23
2023-03-19T09:34:25.782Z,9.18
2023-03-19T09:35:31.330Z,8.88
2023-03-19T09:36:34.586Z,8.30
2023-03-19T09:37:36.741Z,8.00
2023-03-19T09:38:39.578Z,8.00
2023-03-19T09:39:42.253Z,8.55
2023-03-19T09:40:47.218Z,8.40
2023-03-19T09:42:03.888Z,8.23
2023-03-19T09:43:26.315Z,7.88
2023-03-19T09:44:31.679Z,7.75
2023-03-19T09:45:33.594Z,7.50
2023-03-19T09:46:43.395Z,7.32
2023-03-19T09:47:46.627Z,8.32
2023-03-19T09:48:55.093Z,7.07
2023-03-19T09:50:01.282Z,7.55
2023-03-19T09:51:06.688Z,7.50
2023-03-19T09:52:22.446Z,7.35
2023-03-19T09:53:35.644Z,7.05
2023-03-19T09:54:43.750Z,7.07
2023-03-19T09:55:49.776Z,7.38
2023-03-19T09:56:51.439Z,7.18
2023-03-19T09:57:55.841Z,6.40
2023-03-19T09:58:59.272Z,7.00
2023-03-19T10:00:01.808Z,6.40
2023-03-19T10:01:04.326Z,7.00
2023-03-19T10:02:28.887Z,6.03
2023-03-19T10:03:44.451Z,6.95
2023-03-19T10:05:01.171Z,6.22
2023-03-19T10:06:20.651Z,6.55
2023-03-19T10:07:36.793Z,6.72
2023-03-19T10:08:55.728Z,6.22
2023-03-19T10:10:14.025Z,6.63
2023-03-19T10:11:35.478Z,6.88
2023-03-19T10:12:48.806Z,7.03
2023-03-19T10:14:03.198Z,6.30
2023-03-19T10:15:18.219Z,6.32
2023-03-19T10:16:25.020Z,5.60
2023-03-19T10:17:30.591Z,5.88
2023-03-19T10:18:36.248Z,6.45
2023-03-19T10:19:45.593Z,6.38
2023-03-19T10:20:53.110Z,5.68
2023-03-19T10:22:01.049Z,5.88
2023-03-19T10:23:15.617Z,5.90
2023-03-19T10:24:24.002Z,5.90
2023-03-19T10:25:28.551Z,5.65
2023-03-19T10:26:35.526Z,5.68
2023-03-19T10:27:37.661Z,6.20
2023-03-19T10:28:43.774Z,6.60
2023-03-19T10:29:46.659Z,5.85
2023-03-19T10:30:58.228Z,5.60
2023-03-19T10:32:07.597Z,6.00
2023-03-19T10:33:22.998Z,5.45
2023-03-19T10:34:31.468Z,6.20
2023-03-19T10:35:42.859Z,5.60
2023-03-19T10:36:44.400Z,5.60
2023-03-19T10:37:48.312Z,5.28
2023-03-19T10:38:50.799Z,5.50
2023-03-19T10:39:56.775Z,5.72
2023-03-19T10:41:11.456Z,4.60
2023-03-19T10:42:28.119Z,4.88
2023-03-19T10:43:31.054Z,5.10
2023-03-19T10:44:38.305Z,4.15
2023-03-19T10:45:42.459Z,4.28
2023-03-19T10:46:46.629Z,4.35
2023-03-19T10:47:56.118Z,4.30
2023-03-19T10:48:58.699Z,4.03
2023-03-19T10:50:04.624Z,4.32
2023-03-19T10:51:06.646Z,4.22
2023-03-19T10:52:20.986Z,4.32
2023-03-19T10:53:32.188Z,4.30
2023-03-19T10:54:34.727Z,4.15
2023-03-19T10:55:37.469Z,3.97
2023-03-19T10:56:47.884Z,3.85
2023-03-19T10:58:02.436Z,3.78
2023-03-19T10:59:07.338Z,3.83
2023-03-19T11:00:18.295Z,4.10
2023-03-19T11:01:21.397Z,3.28
2023-03-19T11:02:27.914Z,3.60
2023-03-19T11:03:33.400Z,4.20
2023-03-19T11:04:35.979Z,3.53
2023-03-19T11:05:38.080Z,3.65
2023-03-19T11:06:41.254Z,3.47
2023-03-19T11:07:43.861Z,3.75
2023-03-19T11:08:55.441Z,3.65
2023-03-19T11:09:58.441Z,3.10
2023-03-19T11:11:00.224Z,3.85
2023-03-19T11:12:09.470Z,3.58
2023-03-19T11:13:21.804Z,3.65
2023-03-19T11:14:30.729Z,3.33
2023-03-19T11:15:36.533Z,2.90
2023-03-19T11:16:53.176Z,2.92
2023-03-19T11:17:59.439Z,2.63
2023-03-19T11:19:02.036Z,2.78
2023-03-19T11:20:20.388Z,2.80
2023-03-19T11:21:24.799Z,2.60
2023-03-19T11:22:31.740Z,2.90
2023-03-19T11:23:39.669Z,2.30
2023-03-19T11:24:49.096Z,3.28
2023-03-19T11:25:53.966Z,2.65
2023-03-19T11:26:57.026Z,2.42
2023-03-19T11:28:01.981Z,2.80
2023-03-19T11:29:04.622Z,2.63
2023-03-19T11:30:15.364Z,2.72
2023-03-19T11:32:41.386Z,2.67
2023-03-19T11:34:00.372Z,2.83
2023-03-19T11:35:09.516Z,2.88
2023-03-19T11:36:16.668Z,2.63
2023-03-19T11:37:29.325Z,2.50
2023-03-19T11:38:43.723Z,2.47
2023-03-19T11:39:58.751Z,2.75
2023-03-19T11:41:12.010Z,2.85
2023-03-19T11:42:46.179Z,2.63
2023-03-19T11:43:55.962Z,3.00
2023-03-19T11:45:10.072Z,3.08
2023-03-19T11:46:27.923Z,2.88
2023-03-19T11:47:40.945Z,2.70
2023-03-19T11:48:58.632Z,2.72
2023-03-19T11:50:18.065Z,2.40
2023-03-19T11:51:27.268Z,2.67
2023-03-19T11:52:39.108Z,2.28
2023-03-19T11:53:56.391Z,2.22
2023-03-19T11:55:12.225Z,2.13
2023-03-19T11:56:22.019Z,2.55
2023-03-19T11:57:35.590Z,2.50
2023-03-19T11:59:18.906Z,2.03
2023-03-19T12:00:31.392Z,2.38
2023-03-19T12:01:55.405Z,1.88
2023-03-19T12:03:44.972Z,2.30
2023-03-19T12:04:58.513Z,1.80
2023-03-19T12:06:07.422Z,2.20
2023-03-19T12:07:24.633Z,2.05
2023-03-19T12:08:39.451Z,2.10
2023-03-19T12:09:52.015Z,2.28
2023-03-19T12:11:04.445Z,2.10
2023-03-19T12:12:18.514Z,2.58
2023-03-19T12:13:32.504Z,2.95
2023-03-19T12:14:50.392Z,2.30
2023-03-19T12:16:01.317Z,2.30
2023-03-19T12:17:44.417Z,1.98
2023-03-19T12:19:12.016Z,2.25
2023-03-19T12:20:24.928Z,2.10
2023-03-19T12:21:36.218Z,1.75
2023-03-19T12:22:51.018Z,2.03
2023-03-19T12:24:04.292Z,1.83
2023-03-19T12:25:25.694Z,2.00
2023-03-19T12:26:40.535Z,2.30
2023-03-19T12:27:47.688Z,2.15
2023-03-19T12:28:58.118Z,1.85
2023-03-19T12:30:03.841Z,2.00
2023-03-19T12:31:34.235Z,2.00
2023-03-19T12:32:51.586Z,2.47
2023-03-19T12:34:12.634Z,2.10
2023-03-19T12:35:19.834Z,2.30
2023-03-19T12:36:27.019Z,2.22
2023-03-19T12:37:32.491Z,2.72
2023-03-19T12:38:40.277Z,2.65
2023-03-19T12:39:53.240Z,2.70
2023-03-19T12:41:01.074Z,2.72
2023-03-19T12:42:06.714Z,3.03
2023-03-19T12:43:18.139Z,2.97
2023-03-19T12:44:24.290Z,2.85
2023-03-19T12:45:31.363Z,2.60
2023-03-19T12:46:37.778Z,2.28
2023-03-19T12:47:41.582Z,2.25
2023-03-19T12:48:49.377Z,2.13
2023-03-19T12:49:56.986Z,2.50
2023-03-19T12:51:06.586Z,2.63
2023-03-19T12:52:19.155Z,3.00
2023-03-19T12:53:31.100Z,2.53
2023-03-19T12:54:39.300Z,2.53
2023-03-19T12:55:44.986Z,2.20
2023-03-19T12:56:53.549Z,2.22
2023-03-19T12:57:58.834Z,2.35
2023-03-19T12:59:09.852Z,2.00
2023-03-19T13:00:18.730Z,2.55
2023-03-19T13:01:26.354Z,2.50
2023-03-19T13:02:34.275Z,2.20
2023-03-19T13:03:44.567Z,1.85
2023-03-19T13:04:51.208Z,2.00
2023-03-19T13:06:00.786Z,2.00
2023-03-19T13:07:06.373Z,1.90
2023-03-19T13:08:17.205Z,2.08
2023-03-19T13:10:31.496Z,1.75
2023-03-19T13:11:45.625Z,1.50
2023-03-19T13:12:48.744Z,2.08
2023-03-19T13:13:57.225Z,1.92
2023-03-19T13:15:06.339Z,1.95
2023-03-19T13:16:19.703Z,1.50
2023-03-19T13:17:28.684Z,1.50
2023-03-19T13:18:38.985Z,2.20
2023-03-19T13:19:46.024Z,1.75
2023-03-19T13:21:07.183Z,1.92
2023-03-19T13:22:13.641Z,1.90
2023-03-19T13:23:25.453Z,1.58
2023-03-19T13:24:30.913Z,1.55
2023-03-19T13:25:38.274Z,1.70
2023-03-19T13:26:41.405Z,1.75
2023-03-19T13:27:43.146Z,2.15
2023-03-19T13:29:00.056Z,2.28
2023-03-19T13:30:17.751Z,1.90
2023-03-19T13:31:21.839Z,1.80
2023-03-19T13:32:27.826Z,1.88
2023-03-19T13:33:31.905Z,1.90
2023-03-19T13:34:35.478Z,1.80
2023-03-19T13:35:43.538Z,2.40
2023-03-19T13:36:51.925Z,1.83
2023-03-19T13:38:03.060Z,1.70
2023-03-19T13:39:12.331Z,2.00
2023-03-19T13:40:40.538Z,2.05
2023-03-19T13:41:49.088Z,2.00
2023-03-19T13:42:57.903Z,2.20
2023-03-19T13:44:01.822Z,1.73
2023-03-19T13:45:04.917Z,2.22
2023-03-19T13:46:32.006Z,1.55
2023-03-19T13:47:42.561Z,1.67
2023-03-19T13:48:51.337Z,1.70
2023-03-19T13:50:27.560Z,1.67
2023-03-19T13:51:29.783Z,1.77
2023-03-19T13:52:49.303Z,1.83
2023-03-19T13:53:57.046Z,1.58
2023-03-19T13:55:28.132Z,1.80
2023-03-19T13:57:35.580Z,2.22
2023-03-19T13:58:52.451Z,1.90
2023-03-19T13:59:53.992Z,1.90
2023-03-19T14:03:53.723Z,1.95
2023-03-19T14:05:01.999Z,2.00
2023-03-19T14:06:04.447Z,2.15
2023-03-19T14:07:14.133Z,1.90
2023-03-19T14:08:21.972Z,1.90
2023-03-19T14:09:38.332Z,1.80
2023-03-19T14:11:08.826Z,2.10
2023-03-19T14:12:13.638Z,2.17
2023-03-19T14:13:27.076Z,1.95
2023-03-19T14:14:34.579Z,2.15
2023-03-19T14:15:41.672Z,2.38
2023-03-19T14:16:46.936Z,2.20
2023-03-19T14:17:57.583Z,2.25
2023-03-19T14:19:02.899Z,2.30
2023-03-19T14:20:28.049Z,2.00
2023-03-19T14:21:46.390Z,2.20
2023-03-19T14:23:03.617Z,1.92
2023-03-19T14:25:57.765Z,2.10
2023-03-19T14:27:03.915Z,1.90
2023-03-19T14:28:10.885Z,1.90
2023-03-19T14:29:16.300Z,1.67
2023-03-19T14:30:27.091Z,1.83
2023-03-19T14:32:41.197Z,2.28
2023-03-19T14:33:47.390Z,1.88
2023-03-19T14:34:51.105Z,1.80